Seabourn Quest — C6YZ5 — position and weather

sailwx.info

Track history (hours):
 
Tides and Currents Weather Stations Pressure Air Temp Water Temp Dewpoint Dewpoint Depression Visibility Wind Speed Wind Dir Waves Ship Positions

Seabourn Quest

Last reported at 2017-Jun-26 08:24 UTC. Time now 2017-Jun-26 11:56 UTC.
Position N 60°52' E 007°08'.

Length 197 m; draft 6.8 m.

Type: Passenger vessel. MMSI: 311038900.

Date/timePositionNaut miles runAvg speedWind from/ knotsBaromVisibWave heightAir tempDewpointWater temp
2017-Jun-26 08:24N 60°52' E 007°08'0 0.1
2017-Jun-26 08:00N 60°52' E 007°08'0 0.0
2017-Jun-26 07:30N 60°52' E 007°08'0 0.0
2017-Jun-26 07:00N 60°52' E 007°08'0 0.0
2017-Jun-26 06:29N 60°52' E 007°08'0 0.0
2017-Jun-26 06:00N 60°52' E 007°08'0 0.1
2017-Jun-26 05:30N 60°52' E 007°08'1 1.7
2017-Jun-26 05:00N 60°53' E 007°09'5 9.8
2017-Jun-26 04:30N 60°58' E 007°06'815.1
2017-Jun-26 04:00N 61°05' E 007°00'816.6
2017-Jun-26 03:30N 61°10' E 006°47'815.9
2017-Jun-26 03:00N 61°07' E 006°31'917.8
2017-Jun-26 02:30N 61°07' E 006°12'918.6
2017-Jun-26 02:00N 61°08' E 005°53'918.3
2017-Jun-26 01:30N 61°06' E 005°35'817.0
2017-Jun-26 01:00N 61°05' E 005°18'816.3
2017-Jun-26 00:30N 61°04' E 005°01'1219.6
2017-Jun-25 23:55N 60°57' E 004°42'613.8
2017-Jun-25 23:30N 60°51' E 004°41'713.4
2017-Jun-25 23:00N 60°45' E 004°45'5 9.7
2017-Jun-25 22:30N 60°43' E 004°36'612.9
2017-Jun-25 22:00N 60°37' E 004°34'714.4
2017-Jun-25 21:30N 60°30' E 004°34'714.6
2017-Jun-25 21:00N 60°23' E 004°31'816.4
2017-Jun-25 20:30N 60°15' E 004°29'7615.8
2017-Jun-25 15:42N 58°59' E 004°53'315.0
2017-Jun-25 15:30N 58°57' E 004°55'714.9
2017-Jun-25 15:00N 58°50' E 005°01'815.2
2017-Jun-25 14:30N 58°43' E 005°07'1414.2
2017-Jun-25 13:30N 58°30' E 005°17'713.2
2017-Jun-25 13:00N 58°24' E 005°22'611.0
2017-Jun-25 12:30N 58°20' E 005°29'510.6
2017-Jun-25 12:00N 58°16' E 005°37'510.5
2017-Jun-25 11:30N 58°13' E 005°44'611.2
2017-Jun-25 11:00N 58°09' E 005°53'510.5
2017-Jun-25 10:30N 58°06' E 006°01'511.0
2017-Jun-25 10:00N 58°02' E 006°07'510.8
2017-Jun-25 09:30N 57°58' E 006°14'610.7
2017-Jun-25 08:58N 57°54' E 006°22'715.2
2017-Jun-25 08:30N 57°50' E 006°33'715.2
2017-Jun-25 08:00N 57°47' E 006°46'816.0
2017-Jun-25 07:30N 57°46' E 007°01'816.5
2017-Jun-25 06:59N 57°45' E 007°16'816.1
2017-Jun-25 06:30N 57°46' E 007°31'816.3
2017-Jun-25 06:00N 57°46' E 007°46'816.3
2017-Jun-25 05:29N 57°46' E 008°02'6616.4
2017-Jun-25 01:28N 57°48' E 010°06'715.8
2017-Jun-25 01:00N 57°49' E 010°19'815.9
2017-Jun-25 00:30N 57°49' E 010°34'816.3
2017-Jun-24 23:59N 57°46' E 010°49'816.8
2017-Jun-24 23:29N 57°41' E 011°02'817.4
2017-Jun-24 23:00N 57°35' E 011°13'918.0
2017-Jun-24 22:30N 57°29' E 011°25'918.2
2017-Jun-24 22:00N 57°21' E 011°32'918.2
2017-Jun-24 21:30N 57°12' E 011°37'6917.0
2017-Jun-24 17:27N 56°09' E 012°29'715.3
2017-Jun-24 17:00N 56°05' E 012°37'714.1
2017-Jun-24 16:30N 55°58' E 012°42'816.1
2017-Jun-24 16:00N 55°50' E 012°44'815.9
2017-Jun-24 15:30N 55°43' E 012°38'2 3.5
2017-Jun-24 15:00N 55°42' E 012°36'0 0.0
2017-Jun-24 14:00N 55°42' E 012°36'0 0.0
2017-Jun-24 13:30N 55°42' E 012°36'0 0.0
2017-Jun-24 13:00N 55°42' E 012°36'0 0.0
2017-Jun-24 12:30N 55°42' E 012°36'0 0.0
2017-Jun-24 12:00N 55°42' E 012°36'0 0.0
2017-Jun-24 11:30N 55°42' E 012°36'0 0.0
2017-Jun-24 11:00N 55°42' E 012°36'0 0.0
2017-Jun-24 10:30N 55°42' E 012°36'0 0.0
2017-Jun-24 10:00N 55°42' E 012°36'0 0.0
2017-Jun-24 09:30N 55°42' E 012°36'0 0.0
2017-Jun-24 09:00N 55°42' E 012°36'0 0.0
2017-Jun-24 08:30N 55°42' E 012°36'0 0.0
2017-Jun-24 08:00N 55°42' E 012°36'0 0.0
2017-Jun-24 07:30N 55°42' E 012°36'0 0.0
2017-Jun-24 07:00N 55°42' E 012°36'0 0.0
2017-Jun-24 06:30N 55°42' E 012°36'0 0.0
2017-Jun-24 06:00N 55°42' E 012°36'0 0.0
2017-Jun-24 05:30N 55°42' E 012°36'0 0.0
2017-Jun-24 05:00N 55°42' E 012°36'0 0.0
2017-Jun-24 04:30N 55°42' E 012°36'0 0.0
2017-Jun-24 04:01N 55°42' E 012°36'2 3.4
2017-Jun-24 03:31N 55°43' E 012°38'3 6.6
2017-Jun-24 03:01N 55°40' E 012°41'510.2
2017-Jun-24 02:31N 55°35' E 012°42'5 9.7
2017-Jun-24 02:01N 55°30' E 012°43'713.9
2017-Jun-24 01:30N 55°24' E 012°41'713.6
2017-Jun-24 01:00N 55°17' E 012°46'917.3
2017-Jun-24 00:30N 55°16' E 013°01'3217.4
2017-Jun-23 22:41N 55°13' E 013°56'617.3
2017-Jun-23 22:21N 55°13' E 014°06'616.4
2017-Jun-23 22:00N 55°14' E 014°16'917.4
2017-Jun-23 21:30N 55°20' E 014°26'917.5
2017-Jun-23 21:00N 55°26' E 014°38'917.7
2017-Jun-23 20:30N 55°31' E 014°51'917.6
2017-Jun-23 20:00N 55°36' E 015°04'917.6
2017-Jun-23 19:30N 55°40' E 015°18'917.8
2017-Jun-23 19:00N 55°44' E 015°32'917.7
2017-Jun-23 18:30N 55°49' E 015°45'917.7
2017-Jun-23 18:00N 55°53' E 015°59'917.5
2017-Jun-23 17:30N 55°57' E 016°12'917.6
2017-Jun-23 17:00N 56°02' E 016°26'917.7
2017-Jun-23 16:30N 56°06' E 016°39'917.5
2017-Jun-23 16:00N 56°11' E 016°52'917.5
2017-Jun-23 15:30N 56°17' E 017°05'917.7
2017-Jun-23 15:00N 56°22' E 017°18'917.7
2017-Jun-23 14:30N 56°27' E 017°31'14417.8
2017-Jun-23 06:25N 58°17' E 020°23'818.2
2017-Jun-23 06:00N 58°23' E 020°32'918.6
2017-Jun-23 05:30N 58°30' E 020°42'918.6
2017-Jun-23 05:01N 58°38' E 020°53'918.4
2017-Jun-23 04:31N 58°45' E 021°03'918.3
2017-Jun-23 04:01N 58°52' E 021°13'918.6
2017-Jun-23 03:30N 59°00' E 021°24'918.7
2017-Jun-23 03:00N 59°08' E 021°34'918.3
2017-Jun-23 02:31N 59°14' E 021°47'918.3
2017-Jun-23 02:01N 59°20' E 022°00'918.5
2017-Jun-23 01:31N 59°26' E 022°15'918.6
2017-Jun-23 01:00N 59°31' E 022°30'918.6
2017-Jun-23 00:31N 59°34' E 022°47'918.6
2017-Jun-23 00:01N 59°37' E 023°05'918.5
2017-Jun-22 23:31N 59°39' E 023°22'918.5
2017-Jun-22 23:01N 59°42' E 023°40'918.2
2017-Jun-22 22:31N 59°43' E 023°58'918.2
2017-Jun-22 22:00N 59°45' E 024°16'918.4
2017-Jun-22 21:31N 59°47' E 024°33'918.5
2017-Jun-22 21:01N 59°50' E 024°51'918.4
2017-Jun-22 20:30N 59°52' E 025°09'918.7
2017-Jun-22 20:00N 59°53' E 025°27'918.4
2017-Jun-22 19:31N 59°54' E 025°45'918.6
2017-Jun-22 19:00N 59°57' E 026°03'918.4
2017-Jun-22 18:31N 59°59' E 026°21'918.2
2017-Jun-22 18:00N 60°01' E 026°39'918.8
2017-Jun-22 17:31N 59°60' E 026°57'918.0
2017-Jun-22 17:01N 60°03' E 027°14'919.0
2017-Jun-22 16:31N 60°08' E 027°30'918.7
2017-Jun-22 16:01N 60°12' E 027°47'918.8
2017-Jun-22 15:31N 60°09' E 028°06'918.6
2017-Jun-22 15:01N 60°05' E 028°23'918.4
2017-Jun-22 14:30N 60°03' E 028°41'3515.0
2017-Jun-22 12:10N 59°57' E 029°50'313.0
2017-Jun-22 11:55N 59°56' E 029°56'410.4
2017-Jun-22 11:30N 59°56' E 030°05'3 6.5
2017-Jun-22 11:00N 59°57' E 030°11'0 0.6
2017-Jun-22 10:28N 59°57' E 030°12'0 0.0
2017-Jun-22 10:00N 59°57' E 030°12'0 0.0
2017-Jun-22 09:29N 59°57' E 030°12'0 0.0
2017-Jun-22 08:58N 59°57' E 030°12'0 0.0
2017-Jun-22 08:24N 59°57' E 030°12'0 0.0
2017-Jun-22 08:00N 59°57' E 030°12'0 0.0
2017-Jun-22 07:30N 59°57' E 030°12'0 0.0
2017-Jun-22 06:59N 59°57' E 030°12'0 0.0
2017-Jun-22 06:30N 59°57' E 030°12'0 0.0
2017-Jun-22 06:00N 59°57' E 030°12'0 0.0
2017-Jun-22 05:29N 59°57' E 030°12'0 0.0
2017-Jun-22 04:58N 59°57' E 030°12'0 0.0
2017-Jun-22 04:30N 59°57' E 030°12'0 0.0
2017-Jun-22 03:59N 59°57' E 030°12'0 0.0
2017-Jun-22 03:29N 59°57' E 030°12'0 0.0
2017-Jun-22 02:59N 59°57' E 030°12'0 0.0
2017-Jun-22 02:28N 59°57' E 030°12'0 0.0
2017-Jun-22 01:58N 59°57' E 030°12'0 0.0
2017-Jun-22 01:30N 59°57' E 030°12'0 0.0
2017-Jun-22 00:58N 59°57' E 030°12'0 0.0
2017-Jun-22 00:28N 59°57' E 030°12'0 0.0
2017-Jun-21 23:59N 59°57' E 030°12'0 0.0
2017-Jun-21 23:28N 59°57' E 030°12'0 0.0
2017-Jun-21 22:59N 59°57' E 030°12'0 0.0
2017-Jun-21 22:29N 59°57' E 030°12'0 0.0
2017-Jun-21 22:00N 59°57' E 030°12'0 0.0
2017-Jun-21 21:31N 59°57' E 030°12'0 0.0
2017-Jun-21 21:00N 59°57' E 030°12'0 0.0
2017-Jun-21 20:30N 59°57' E 030°12'0 0.0
2017-Jun-21 20:00N 59°57' E 030°12'0 0.0
2017-Jun-21 19:30N 59°57' E 030°12'0 0.0
2017-Jun-21 18:59N 59°57' E 030°12'0 0.0
2017-Jun-21 18:30N 59°57' E 030°12'0 0.0
2017-Jun-21 17:59N 59°57' E 030°12'0 0.0
2017-Jun-21 17:29N 59°57' E 030°12'0 0.0
2017-Jun-21 16:59N 59°57' E 030°12'0 0.0
2017-Jun-21 16:30N 59°57' E 030°12'0 0.0
2017-Jun-21 15:59N 59°57' E 030°12'0 0.0
2017-Jun-21 15:29N 59°57' E 030°12'0 0.0
2017-Jun-21 14:58N 59°57' E 030°12'0 0.0
2017-Jun-21 13:58N 59°57' E 030°12'0 0.0
2017-Jun-21 13:30N 59°57' E 030°12'0 0.0
2017-Jun-21 13:00N 59°57' E 030°12'0 0.0
2017-Jun-21 12:28N 59°57' E 030°12'0 0.0
2017-Jun-21 12:00N 59°57' E 030°12'0 0.0
2017-Jun-21 11:28N 59°57' E 030°12'0 0.0
2017-Jun-21 10:57N 59°57' E 030°12'0 0.0
2017-Jun-21 10:29N 59°57' E 030°12'0 0.0
2017-Jun-21 09:57N 59°57' E 030°12'0 0.0
2017-Jun-21 09:29N 59°57' E 030°12'0 0.0
2017-Jun-21 08:58N 59°57' E 030°12'0 0.0
2017-Jun-21 08:30N 59°57' E 030°12'0 0.0
2017-Jun-21 08:00N 59°57' E 030°12'0 0.0
2017-Jun-21 07:26N 59°57' E 030°12'0 0.0
2017-Jun-21 07:00N 59°57' E 030°12'0 0.0
2017-Jun-21 06:28N 59°57' E 030°12'0 0.0
2017-Jun-21 06:00N 59°57' E 030°12'0 0.0
2017-Jun-21 05:30N 59°57' E 030°12'0 0.0
2017-Jun-21 04:58N 59°57' E 030°12'0 0.0
2017-Jun-21 04:30N 59°57' E 030°12'2 4.1
2017-Jun-21 04:01N 59°57' E 030°07'5 9.6
2017-Jun-21 03:30N 59°56' E 029°58'611.8
2017-Jun-21 03:01N 59°58' E 029°47'2512.2
2017-Jun-21 00:58N 60°02' E 028°58'613.7
2017-Jun-21 00:30N 60°02' E 028°46'713.5
2017-Jun-21 00:00N 60°03' E 028°32'713.1
2017-Jun-20 23:31N 60°05' E 028°20'713.5
2017-Jun-20 23:00N 60°08' E 028°08'713.7
2017-Jun-20 22:30N 60°10' E 027°55'713.6
2017-Jun-20 22:00N 60°09' E 027°41'714.7
2017-Jun-20 21:30N 60°05' E 027°29'714.3
2017-Jun-20 21:00N 60°02' E 027°16'714.1
2017-Jun-20 20:30N 59°58' E 027°04'714.3
2017-Jun-20 20:01N 59°59' E 026°50'714.3
2017-Jun-20 19:30N 59°59' E 026°36'714.2
2017-Jun-20 19:00N 59°57' E 026°22'714.1
2017-Jun-20 18:30N 59°56' E 026°09'714.1
2017-Jun-20 18:00N 59°54' E 025°55'714.0
2017-Jun-20 17:30N 59°52' E 025°41'713.5
2017-Jun-20 17:00N 59°53' E 025°28'714.3
2017-Jun-20 16:30N 59°56' E 025°15'714.3
2017-Jun-20 16:00N 59°59' E 025°02'612.0
2017-Jun-20 15:30N 60°03' E 024°53'611.6
2017-Jun-20 15:00N 60°09' E 024°55'0 0.0
2017-Jun-20 14:29N 60°09' E 024°55'0 0.0
2017-Jun-20 13:29N 60°09' E 024°55'0 0.0
2017-Jun-20 12:59N 60°09' E 024°55'0 0.0
2017-Jun-20 12:29N 60°09' E 024°55'0 0.0
2017-Jun-20 11:59N 60°09' E 024°55'0 0.0
2017-Jun-20 11:29N 60°09' E 024°55'0 0.0
2017-Jun-20 10:59N 60°09' E 024°55'0 0.0
2017-Jun-20 10:29N 60°09' E 024°55'0 0.0
2017-Jun-20 09:59N 60°09' E 024°55'0 0.0
2017-Jun-20 09:29N 60°09' E 024°55'0 0.0
2017-Jun-20 08:59N 60°09' E 024°55'0 0.0
2017-Jun-20 08:29N 60°09' E 024°55'0 0.0
2017-Jun-20 07:59N 60°09' E 024°55'0 0.0
2017-Jun-20 07:29N 60°09' E 024°55'0 0.0
2017-Jun-20 06:59N 60°09' E 024°55'0 0.0
2017-Jun-20 06:29N 60°09' E 024°55'0 0.0
2017-Jun-20 05:59N 60°09' E 024°55'0 0.0
2017-Jun-20 05:29N 60°09' E 024°55'0 0.0
2017-Jun-20 04:59N 60°09' E 024°55'0 0.0
2017-Jun-20 04:29N 60°09' E 024°55'0 0.0
2017-Jun-20 03:59N 60°09' E 024°55'0 0.0
2017-Jun-20 03:29N 60°09' E 024°55'0 0.0
2017-Jun-20 02:59N 60°09' E 024°55'0 0.0
2017-Jun-20 02:29N 60°09' E 024°55'0 0.0
2017-Jun-20 01:59N 60°09' E 024°55'0 0.0
2017-Jun-20 01:29N 60°09' E 024°55'0 0.0
2017-Jun-20 00:59N 60°09' E 024°55'0 0.0
2017-Jun-20 00:29N 60°09' E 024°55'0 0.0
2017-Jun-19 23:59N 60°09' E 024°55'0 0.0
2017-Jun-19 23:29N 60°09' E 024°55'0 0.0
2017-Jun-19 22:59N 60°09' E 024°55'0 0.0
2017-Jun-19 22:29N 60°09' E 024°55'0 0.0
2017-Jun-19 21:59N 60°09' E 024°55'0 0.0
2017-Jun-19 21:29N 60°09' E 024°55'0 0.0
2017-Jun-19 20:59N 60°09' E 024°55'0 0.0
2017-Jun-19 20:29N 60°09' E 024°55'1 1.3
2017-Jun-19 20:01N 60°09' E 024°54'4 7.5
2017-Jun-19 19:30N 60°05' E 024°54'5 9.8
2017-Jun-19 19:00N 60°00' E 024°57'4 8.0
2017-Jun-19 18:30N 59°56' E 024°56'4 8.2
2017-Jun-19 18:00N 59°52' E 024°54'4 8.1
2017-Jun-19 17:30N 59°48' E 024°52'4 8.7
2017-Jun-19 17:00N 59°44' E 024°50'4 8.3
2017-Jun-19 16:30N 59°40' E 024°46'4 8.5
2017-Jun-19 16:00N 59°37' E 024°41'612.4
2017-Jun-19 15:31N 59°31' E 024°45'4 8.4
2017-Jun-19 15:00N 59°27' E 024°46'0 0.0
2017-Jun-19 13:58N 59°27' E 024°46'0 0.0
2017-Jun-19 13:29N 59°27' E 024°46'0 0.0
2017-Jun-19 12:59N 59°27' E 024°46'0 0.0
2017-Jun-19 12:28N 59°27' E 024°46'0 0.0
2017-Jun-19 11:57N 59°27' E 024°46'0 0.0
2017-Jun-19 11:27N 59°27' E 024°46'0 0.0
2017-Jun-19 10:58N 59°27' E 024°46'0 0.0
2017-Jun-19 10:28N 59°27' E 024°46'0 0.0
2017-Jun-19 09:58N 59°27' E 024°46'0 0.0
2017-Jun-19 09:28N 59°27' E 024°46'0 0.0
2017-Jun-19 08:58N 59°27' E 024°46'0 0.0
2017-Jun-19 08:28N 59°27' E 024°46'0 0.0
2017-Jun-19 07:59N 59°27' E 024°46'0 0.0
2017-Jun-19 07:30N 59°27' E 024°46'0 0.0
2017-Jun-19 07:00N 59°27' E 024°46'0 0.0
2017-Jun-19 06:29N 59°27' E 024°46'0 0.0
2017-Jun-19 06:00N 59°27' E 024°46'0 0.0
2017-Jun-19 05:28N 59°27' E 024°46'0 0.0
2017-Jun-19 04:55N 59°27' E 024°46'0 0.0
2017-Jun-19 04:28N 59°27' E 024°46'0 0.0
2017-Jun-19 03:58N 59°27' E 024°46'0 0.0
2017-Jun-19 03:28N 59°27' E 024°46'0 0.0
2017-Jun-19 03:00N 59°27' E 024°46'0 0.0
2017-Jun-19 02:30N 59°27' E 024°46'0 0.0
2017-Jun-19 02:00N 59°27' E 024°46'0 0.0
2017-Jun-19 01:30N 59°27' E 024°46'0 0.0
2017-Jun-19 01:00N 59°27' E 024°46'0 0.0
2017-Jun-19 00:30N 59°27' E 024°46'0 0.0
2017-Jun-19 00:00N 59°27' E 024°46'0 0.0
2017-Jun-18 23:30N 59°27' E 024°46'0 0.0
2017-Jun-18 23:00N 59°27' E 024°46'0 0.0
2017-Jun-18 22:28N 59°27' E 024°46'0 0.0
2017-Jun-18 22:00N 59°27' E 024°46'0 0.0
2017-Jun-18 21:30N 59°27' E 024°46'0 0.0
2017-Jun-18 21:00N 59°27' E 024°46'0 0.0
2017-Jun-18 20:30N 59°27' E 024°46'0 0.0
2017-Jun-18 20:00N 59°27' E 024°46'0 0.0
2017-Jun-18 19:30N 59°27' E 024°46'0 0.0
2017-Jun-18 19:00N 59°27' E 024°46'0 0.0
2017-Jun-18 18:30N 59°27' E 024°46'0 0.0
2017-Jun-18 18:00N 59°27' E 024°46'0 0.0
2017-Jun-18 17:29N 59°27' E 024°46'0 0.0
2017-Jun-18 16:59N 59°27' E 024°46'0 0.0
2017-Jun-18 16:29N 59°27' E 024°46'0 0.0
2017-Jun-18 15:58N 59°27' E 024°46'0 0.0
2017-Jun-18 15:30N 59°27' E 024°46'0 0.0
2017-Jun-18 15:00N 59°27' E 024°46'0 0.0
2017-Jun-18 14:00N 59°27' E 024°46'0 0.0
2017-Jun-18 13:30N 59°27' E 024°46'0 0.0
2017-Jun-18 13:00N 59°27' E 024°46'0 0.0
2017-Jun-18 12:30N 59°27' E 024°46'0 0.0
2017-Jun-18 11:57N 59°27' E 024°46'0 0.0
2017-Jun-18 11:30N 59°27' E 024°46'0 0.0
2017-Jun-18 11:00N 59°27' E 024°46'0 0.0
2017-Jun-18 10:30N 59°27' E 024°46'0 0.0
2017-Jun-18 10:00N 59°27' E 024°46'0 0.0
2017-Jun-18 09:30N 59°27' E 024°46'0 0.0
2017-Jun-18 09:00N 59°27' E 024°46'0 0.0
2017-Jun-18 08:30N 59°27' E 024°46'0 0.0
2017-Jun-18 08:00N 59°27' E 024°46'0 0.0
2017-Jun-18 07:30N 59°27' E 024°46'0 0.0
2017-Jun-18 06:57N 59°27' E 024°46'0 0.0
2017-Jun-18 06:30N 59°27' E 024°46'2 4.3
2017-Jun-18 06:00N 59°29' E 024°45'612.0
2017-Jun-18 05:30N 59°30' E 024°33'714.3
2017-Jun-18 05:00N 59°30' E 024°19'816.0
2017-Jun-18 04:30N 59°29' E 024°03'815.5
2017-Jun-18 04:00N 59°29' E 023°48'917.5
2017-Jun-18 03:30N 59°28' E 023°31'917.8
2017-Jun-18 03:00N 59°27' E 023°14'816.2
2017-Jun-18 02:30N 59°24' E 022°59'816.5
2017-Jun-18 02:01N 59°22' E 022°43'816.5
2017-Jun-18 01:30N 59°19' E 022°28'816.2
2017-Jun-18 01:00N 59°18' E 022°12'816.4
2017-Jun-18 00:30N 59°18' E 021°56'816.5
2017-Jun-18 00:00N 59°17' E 021°40'816.4
2017-Jun-17 23:30N 59°17' E 021°24'816.4
2017-Jun-17 23:00N 59°15' E 021°08'816.1
2017-Jun-17 22:30N 59°16' E 020°53'816.5
2017-Jun-17 22:00N 59°16' E 020°37'816.4
2017-Jun-17 21:30N 59°16' E 020°21'816.5
2017-Jun-17 21:00N 59°15' E 020°05'816.6
2017-Jun-17 20:30N 59°15' E 019°48'816.5
2017-Jun-17 20:01N 59°14' E 019°32'917.1
2017-Jun-17 19:31N 59°14' E 019°15'714.7
2017-Jun-17 19:00N 59°15' E 019°01'5 9.0
2017-Jun-17 18:30N 59°18' E 018°54'611.7
2017-Jun-17 18:00N 59°22' E 018°46'611.7
2017-Jun-17 17:30N 59°23' E 018°35'611.1
2017-Jun-17 16:55N 59°26' E 018°24'4 9.7
2017-Jun-17 16:30N 59°23' E 018°27'4 7.7
2017-Jun-17 16:00N 59°22' E 018°19'510.8
2017-Jun-17 15:30N 59°20' E 018°09'1 1.9
2017-Jun-17 14:56N 59°21' E 018°07'0 0.0
2017-Jun-17 14:19N 59°21' E 018°07'0 0.0
2017-Jun-17 13:26N 59°21' E 018°07'0 0.0
2017-Jun-17 12:57N 59°21' E 018°07'0 0.0
2017-Jun-17 12:27N 59°21' E 018°07'0 0.0
2017-Jun-17 11:55N 59°21' E 018°07'0 0.0
2017-Jun-17 11:29N 59°21' E 018°07'0 0.0
2017-Jun-17 10:59N 59°21' E 018°07'0 0.0
2017-Jun-17 10:29N 59°21' E 018°07'0 0.0
2017-Jun-17 09:59N 59°21' E 018°07'0 0.0
2017-Jun-17 09:29N 59°21' E 018°07'0 0.0
2017-Jun-17 09:00N 59°21' E 018°07'0 0.0
2017-Jun-17 08:25N 59°21' E 018°07'0 0.0
2017-Jun-17 07:48N 59°21' E 018°07'0 0.0
2017-Jun-17 07:30N 59°21' E 018°07'0 0.0
2017-Jun-17 06:56N 59°21' E 018°07'0 0.0
2017-Jun-17 06:29N 59°21' E 018°07'0 0.0
2017-Jun-17 06:00N 59°21' E 018°07'0 0.0
2017-Jun-17 05:30N 59°21' E 018°07'0 0.0
2017-Jun-17 04:59N 59°21' E 018°07'0 0.8
2017-Jun-17 04:30N 59°21' E 018°08'2 4.4
2017-Jun-17 04:00N 59°20' E 018°12'510.6
2017-Jun-17 03:30N 59°22' E 018°22'3 5.5
2017-Jun-17 03:00N 59°24' E 018°26'3 5.2
2017-Jun-17 02:30N 59°26' E 018°29'611.8
2017-Jun-17 02:00N 59°23' E 018°38'510.7
2017-Jun-17 01:31N 59°20' E 018°47'611.0
2017-Jun-17 01:00N 59°16' E 018°54'611.5
2017-Jun-17 00:30N 59°14' E 019°05'612.4
2017-Jun-17 00:01N 59°15' E 019°17'714.2
2017-Jun-16 23:31N 59°16' E 019°31'714.2
2017-Jun-16 23:01N 59°17' E 019°44'714.0
2017-Jun-16 22:31N 59°18' E 019°58'714.2
2017-Jun-16 22:01N 59°19' E 020°12'714.3
2017-Jun-16 21:31N 59°20' E 020°26'714.2
2017-Jun-16 21:01N 59°21' E 020°39'714.3
2017-Jun-16 20:31N 59°22' E 020°53'714.5
2017-Jun-16 20:01N 59°23' E 021°07'714.3
2017-Jun-16 19:31N 59°24' E 021°21'714.3
2017-Jun-16 19:00N 59°25' E 021°35'714.4
2017-Jun-16 18:30N 59°26' E 021°49'714.6
2017-Jun-16 18:01N 59°27' E 022°03'714.7
2017-Jun-16 17:31N 59°28' E 022°18'714.4
2017-Jun-16 17:01N 59°31' E 022°30'714.5
2017-Jun-16 16:30N 59°33' E 022°44'714.6
2017-Jun-16 16:00N 59°35' E 022°58'714.5
2017-Jun-16 15:31N 59°37' E 023°11'714.8
2017-Jun-16 15:00N 59°40' E 023°25'815.3
2017-Jun-16 14:31N 59°42' E 023°40'1818.0
2017-Jun-16 13:31N 59°46' E 024°14'918.8
2017-Jun-16 13:00N 59°49' E 024°33'918.6
2017-Jun-16 12:31N 59°53' E 024°49'917.1
2017-Jun-16 12:01N 60°01' E 024°57'713.2
2017-Jun-16 11:31N 60°07' E 024°59'3 5.1
2017-Jun-16 11:00N 60°10' E 024°58'0 0.0
2017-Jun-16 10:26N 60°10' E 024°58'0 0.0
2017-Jun-16 10:00N 60°10' E 024°58'0 0.0
2017-Jun-16 09:30N 60°10' E 024°58'0 0.0
2017-Jun-16 09:00N 60°10' E 024°58'0 0.0
2017-Jun-16 08:29N 60°10' E 024°58'  
Track history (hours):
 
Tides and Currents Weather Stations Pressure Air Temp Water Temp Dewpoint Dewpoint Depression Visibility Wind Speed Wind Dir Waves Ship Positions

Seabourn Quest

Last reported at 2017-Jun-26 08:24 UTC. Time now 2017-Jun-26 11:56 UTC.
Position N 60°52' E 007°08'.

Length 197 m; draft 6.8 m.

Type: Passenger vessel. MMSI: 311038900.

Date/timePositionNaut miles runAvg speedWind from/ knotsBaromVisibWave heightAir tempDewpointWater temp
2017-Jun-26 08:24N 60°52' E 007°08'0 0.1
2017-Jun-26 08:00N 60°52' E 007°08'0 0.0
2017-Jun-26 07:30N 60°52' E 007°08'0 0.0
2017-Jun-26 07:00N 60°52' E 007°08'0 0.0
2017-Jun-26 06:29N 60°52' E 007°08'0 0.0
2017-Jun-26 06:00N 60°52' E 007°08'0 0.1
2017-Jun-26 05:30N 60°52' E 007°08'1 1.7
2017-Jun-26 05:00N 60°53' E 007°09'5 9.8
2017-Jun-26 04:30N 60°58' E 007°06'815.1
2017-Jun-26 04:00N 61°05' E 007°00'816.6
2017-Jun-26 03:30N 61°10' E 006°47'815.9
2017-Jun-26 03:00N 61°07' E 006°31'917.8
2017-Jun-26 02:30N 61°07' E 006°12'918.6
2017-Jun-26 02:00N 61°08' E 005°53'918.3
2017-Jun-26 01:30N 61°06' E 005°35'817.0
2017-Jun-26 01:00N 61°05' E 005°18'816.3
2017-Jun-26 00:30N 61°04' E 005°01'1219.6
2017-Jun-25 23:55N 60°57' E 004°42'613.8
2017-Jun-25 23:30N 60°51' E 004°41'713.4
2017-Jun-25 23:00N 60°45' E 004°45'5 9.7
2017-Jun-25 22:30N 60°43' E 004°36'612.9
2017-Jun-25 22:00N 60°37' E 004°34'714.4
2017-Jun-25 21:30N 60°30' E 004°34'714.6
2017-Jun-25 21:00N 60°23' E 004°31'816.4
2017-Jun-25 20:30N 60°15' E 004°29'7615.8
2017-Jun-25 15:42N 58°59' E 004°53'315.0
2017-Jun-25 15:30N 58°57' E 004°55'714.9
2017-Jun-25 15:00N 58°50' E 005°01'815.2
2017-Jun-25 14:30N 58°43' E 005°07'1414.2
2017-Jun-25 13:30N 58°30' E 005°17'713.2
2017-Jun-25 13:00N 58°24' E 005°22'611.0
2017-Jun-25 12:30N 58°20' E 005°29'510.6
2017-Jun-25 12:00N 58°16' E 005°37'510.5
2017-Jun-25 11:30N 58°13' E 005°44'611.2
2017-Jun-25 11:00N 58°09' E 005°53'510.5
2017-Jun-25 10:30N 58°06' E 006°01'511.0
2017-Jun-25 10:00N 58°02' E 006°07'510.8
2017-Jun-25 09:30N 57°58' E 006°14'610.7
2017-Jun-25 08:58N 57°54' E 006°22'715.2
2017-Jun-25 08:30N 57°50' E 006°33'715.2
2017-Jun-25 08:00N 57°47' E 006°46'816.0
2017-Jun-25 07:30N 57°46' E 007°01'816.5
2017-Jun-25 06:59N 57°45' E 007°16'816.1
2017-Jun-25 06:30N 57°46' E 007°31'816.3
2017-Jun-25 06:00N 57°46' E 007°46'816.3
2017-Jun-25 05:29N 57°46' E 008°02'6616.4
2017-Jun-25 01:28N 57°48' E 010°06'715.8
2017-Jun-25 01:00N 57°49' E 010°19'815.9
2017-Jun-25 00:30N 57°49' E 010°34'816.3
2017-Jun-24 23:59N 57°46' E 010°49'816.8
2017-Jun-24 23:29N 57°41' E 011°02'817.4
2017-Jun-24 23:00N 57°35' E 011°13'918.0
2017-Jun-24 22:30N 57°29' E 011°25'918.2
2017-Jun-24 22:00N 57°21' E 011°32'918.2
2017-Jun-24 21:30N 57°12' E 011°37'6917.0
2017-Jun-24 17:27N 56°09' E 012°29'715.3
2017-Jun-24 17:00N 56°05' E 012°37'714.1
2017-Jun-24 16:30N 55°58' E 012°42'816.1
2017-Jun-24 16:00N 55°50' E 012°44'815.9
2017-Jun-24 15:30N 55°43' E 012°38'2 3.5
2017-Jun-24 15:00N 55°42' E 012°36'0 0.0
2017-Jun-24 14:00N 55°42' E 012°36'0 0.0
2017-Jun-24 13:30N 55°42' E 012°36'0 0.0
2017-Jun-24 13:00N 55°42' E 012°36'0 0.0
2017-Jun-24 12:30N 55°42' E 012°36'0 0.0
2017-Jun-24 12:00N 55°42' E 012°36'0 0.0
2017-Jun-24 11:30N 55°42' E 012°36'0 0.0
2017-Jun-24 11:00N 55°42' E 012°36'0 0.0
2017-Jun-24 10:30N 55°42' E 012°36'0 0.0
2017-Jun-24 10:00N 55°42' E 012°36'0 0.0
2017-Jun-24 09:30N 55°42' E 012°36'0 0.0
2017-Jun-24 09:00N 55°42' E 012°36'0 0.0
2017-Jun-24 08:30N 55°42' E 012°36'0 0.0
2017-Jun-24 08:00N 55°42' E 012°36'0 0.0
2017-Jun-24 07:30N 55°42' E 012°36'0 0.0
2017-Jun-24 07:00N 55°42' E 012°36'0 0.0
2017-Jun-24 06:30N 55°42' E 012°36'0 0.0
2017-Jun-24 06:00N 55°42' E 012°36'0 0.0
2017-Jun-24 05:30N 55°42' E 012°36'0 0.0
2017-Jun-24 05:00N 55°42' E 012°36'0 0.0
2017-Jun-24 04:30N 55°42' E 012°36'0 0.0
2017-Jun-24 04:01N 55°42' E 012°36'2 3.4
2017-Jun-24 03:31N 55°43' E 012°38'3 6.6
2017-Jun-24 03:01N 55°40' E 012°41'510.2
2017-Jun-24 02:31N 55°35' E 012°42'5 9.7
2017-Jun-24 02:01N 55°30' E 012°43'713.9
2017-Jun-24 01:30N 55°24' E 012°41'713.6
2017-Jun-24 01:00N 55°17' E 012°46'917.3
2017-Jun-24 00:30N 55°16' E 013°01'3217.4
2017-Jun-23 22:41N 55°13' E 013°56'617.3
2017-Jun-23 22:21N 55°13' E 014°06'616.4
2017-Jun-23 22:00N 55°14' E 014°16'917.4
2017-Jun-23 21:30N 55°20' E 014°26'917.5
2017-Jun-23 21:00N 55°26' E 014°38'917.7
2017-Jun-23 20:30N 55°31' E 014°51'917.6
2017-Jun-23 20:00N 55°36' E 015°04'917.6
2017-Jun-23 19:30N 55°40' E 015°18'917.8
2017-Jun-23 19:00N 55°44' E 015°32'917.7
2017-Jun-23 18:30N 55°49' E 015°45'917.7
2017-Jun-23 18:00N 55°53' E 015°59'917.5
2017-Jun-23 17:30N 55°57' E 016°12'917.6
2017-Jun-23 17:00N 56°02' E 016°26'917.7
2017-Jun-23 16:30N 56°06' E 016°39'917.5
2017-Jun-23 16:00N 56°11' E 016°52'917.5
2017-Jun-23 15:30N 56°17' E 017°05'917.7
2017-Jun-23 15:00N 56°22' E 017°18'917.7
2017-Jun-23 14:30N 56°27' E 017°31'14417.8
2017-Jun-23 06:25N 58°17' E 020°23'818.2
2017-Jun-23 06:00N 58°23' E 020°32'918.6
2017-Jun-23 05:30N 58°30' E 020°42'918.6
2017-Jun-23 05:01N 58°38' E 020°53'918.4
2017-Jun-23 04:31N 58°45' E 021°03'918.3
2017-Jun-23 04:01N 58°52' E 021°13'918.6
2017-Jun-23 03:30N 59°00' E 021°24'918.7
2017-Jun-23 03:00N 59°08' E 021°34'918.3
2017-Jun-23 02:31N 59°14' E 021°47'918.3
2017-Jun-23 02:01N 59°20' E 022°00'918.5
2017-Jun-23 01:31N 59°26' E 022°15'918.6
2017-Jun-23 01:00N 59°31' E 022°30'918.6
2017-Jun-23 00:31N 59°34' E 022°47'918.6
2017-Jun-23 00:01N 59°37' E 023°05'918.5
2017-Jun-22 23:31N 59°39' E 023°22'918.5
2017-Jun-22 23:01N 59°42' E 023°40'918.2
2017-Jun-22 22:31N 59°43' E 023°58'918.2
2017-Jun-22 22:00N 59°45' E 024°16'918.4
2017-Jun-22 21:31N 59°47' E 024°33'918.5
2017-Jun-22 21:01N 59°50' E 024°51'918.4
2017-Jun-22 20:30N 59°52' E 025°09'918.7
2017-Jun-22 20:00N 59°53' E 025°27'918.4
2017-Jun-22 19:31N 59°54' E 025°45'918.6
2017-Jun-22 19:00N 59°57' E 026°03'918.4
2017-Jun-22 18:31N 59°59' E 026°21'918.2
2017-Jun-22 18:00N 60°01' E 026°39'918.8
2017-Jun-22 17:31N 59°60' E 026°57'918.0
2017-Jun-22 17:01N 60°03' E 027°14'919.0
2017-Jun-22 16:31N 60°08' E 027°30'918.7
2017-Jun-22 16:01N 60°12' E 027°47'918.8
2017-Jun-22 15:31N 60°09' E 028°06'918.6
2017-Jun-22 15:01N 60°05' E 028°23'918.4
2017-Jun-22 14:30N 60°03' E 028°41'3515.0
2017-Jun-22 12:10N 59°57' E 029°50'313.0
2017-Jun-22 11:55N 59°56' E 029°56'410.4
2017-Jun-22 11:30N 59°56' E 030°05'3 6.5
2017-Jun-22 11:00N 59°57' E 030°11'0 0.6
2017-Jun-22 10:28N 59°57' E 030°12'0 0.0
2017-Jun-22 10:00N 59°57' E 030°12'0 0.0
2017-Jun-22 09:29N 59°57' E 030°12'0 0.0
2017-Jun-22 08:58N 59°57' E 030°12'0 0.0
2017-Jun-22 08:24N 59°57' E 030°12'0 0.0
2017-Jun-22 08:00N 59°57' E 030°12'0 0.0
2017-Jun-22 07:30N 59°57' E 030°12'0 0.0
2017-Jun-22 06:59N 59°57' E 030°12'0 0.0
2017-Jun-22 06:30N 59°57' E 030°12'0 0.0
2017-Jun-22 06:00N 59°57' E 030°12'0 0.0
2017-Jun-22 05:29N 59°57' E 030°12'0 0.0
2017-Jun-22 04:58N 59°57' E 030°12'0 0.0
2017-Jun-22 04:30N 59°57' E 030°12'0 0.0
2017-Jun-22 03:59N 59°57' E 030°12'0 0.0
2017-Jun-22 03:29N 59°57' E 030°12'0 0.0
2017-Jun-22 02:59N 59°57' E 030°12'0 0.0
2017-Jun-22 02:28N 59°57' E 030°12'0 0.0
2017-Jun-22 01:58N 59°57' E 030°12'0 0.0
2017-Jun-22 01:30N 59°57' E 030°12'0 0.0
2017-Jun-22 00:58N 59°57' E 030°12'0 0.0
2017-Jun-22 00:28N 59°57' E 030°12'0 0.0
2017-Jun-21 23:59N 59°57' E 030°12'0 0.0
2017-Jun-21 23:28N 59°57' E 030°12'0 0.0
2017-Jun-21 22:59N 59°57' E 030°12'0 0.0
2017-Jun-21 22:29N 59°57' E 030°12'0 0.0
2017-Jun-21 22:00N 59°57' E 030°12'0 0.0
2017-Jun-21 21:31N 59°57' E 030°12'0 0.0
2017-Jun-21 21:00N 59°57' E 030°12'0 0.0
2017-Jun-21 20:30N 59°57' E 030°12'0 0.0
2017-Jun-21 20:00N 59°57' E 030°12'0 0.0
2017-Jun-21 19:30N 59°57' E 030°12'0 0.0
2017-Jun-21 18:59N 59°57' E 030°12'0 0.0
2017-Jun-21 18:30N 59°57' E 030°12'0 0.0
2017-Jun-21 17:59N 59°57' E 030°12'0 0.0
2017-Jun-21 17:29N 59°57' E 030°12'0 0.0
2017-Jun-21 16:59N 59°57' E 030°12'0 0.0
2017-Jun-21 16:30N 59°57' E 030°12'0 0.0
2017-Jun-21 15:59N 59°57' E 030°12'0 0.0
2017-Jun-21 15:29N 59°57' E 030°12'0 0.0
2017-Jun-21 14:58N 59°57' E 030°12'0 0.0
2017-Jun-21 13:58N 59°57' E 030°12'0 0.0
2017-Jun-21 13:30N 59°57' E 030°12'0 0.0
2017-Jun-21 13:00N 59°57' E 030°12'0 0.0
2017-Jun-21 12:28N 59°57' E 030°12'0 0.0
2017-Jun-21 12:00N 59°57' E 030°12'0 0.0
2017-Jun-21 11:28N 59°57' E 030°12'0 0.0
2017-Jun-21 10:57N 59°57' E 030°12'0 0.0
2017-Jun-21 10:29N 59°57' E 030°12'0 0.0
2017-Jun-21 09:57N 59°57' E 030°12'0 0.0
2017-Jun-21 09:29N 59°57' E 030°12'0 0.0
2017-Jun-21 08:58N 59°57' E 030°12'0 0.0
2017-Jun-21 08:30N 59°57' E 030°12'0 0.0
2017-Jun-21 08:00N 59°57' E 030°12'0 0.0
2017-Jun-21 07:26N 59°57' E 030°12'0 0.0
2017-Jun-21 07:00N 59°57' E 030°12'0 0.0
2017-Jun-21 06:28N 59°57' E 030°12'0 0.0
2017-Jun-21 06:00N 59°57' E 030°12'0 0.0
2017-Jun-21 05:30N 59°57' E 030°12'0 0.0
2017-Jun-21 04:58N 59°57' E 030°12'0 0.0
2017-Jun-21 04:30N 59°57' E 030°12'2 4.1
2017-Jun-21 04:01N 59°57' E 030°07'5 9.6
2017-Jun-21 03:30N 59°56' E 029°58'611.8
2017-Jun-21 03:01N 59°58' E 029°47'2512.2
2017-Jun-21 00:58N 60°02' E 028°58'613.7
2017-Jun-21 00:30N 60°02' E 028°46'713.5
2017-Jun-21 00:00N 60°03' E 028°32'713.1
2017-Jun-20 23:31N 60°05' E 028°20'713.5
2017-Jun-20 23:00N 60°08' E 028°08'713.7
2017-Jun-20 22:30N 60°10' E 027°55'713.6
2017-Jun-20 22:00N 60°09' E 027°41'714.7
2017-Jun-20 21:30N 60°05' E 027°29'714.3
2017-Jun-20 21:00N 60°02' E 027°16'714.1
2017-Jun-20 20:30N 59°58' E 027°04'714.3
2017-Jun-20 20:01N 59°59' E 026°50'714.3
2017-Jun-20 19:30N 59°59' E 026°36'714.2
2017-Jun-20 19:00N 59°57' E 026°22'714.1
2017-Jun-20 18:30N 59°56' E 026°09'714.1
2017-Jun-20 18:00N 59°54' E 025°55'714.0
2017-Jun-20 17:30N 59°52' E 025°41'713.5
2017-Jun-20 17:00N 59°53' E 025°28'714.3
2017-Jun-20 16:30N 59°56' E 025°15'714.3
2017-Jun-20 16:00N 59°59' E 025°02'612.0
2017-Jun-20 15:30N 60°03' E 024°53'611.6
2017-Jun-20 15:00N 60°09' E 024°55'0 0.0
2017-Jun-20 14:29N 60°09' E 024°55'0 0.0
2017-Jun-20 13:29N 60°09' E 024°55'0 0.0
2017-Jun-20 12:59N 60°09' E 024°55'0 0.0
2017-Jun-20 12:29N 60°09' E 024°55'0 0.0
2017-Jun-20 11:59N 60°09' E 024°55'0 0.0
2017-Jun-20 11:29N 60°09' E 024°55'0 0.0
2017-Jun-20 10:59N 60°09' E 024°55'0 0.0
2017-Jun-20 10:29N 60°09' E 024°55'0 0.0
2017-Jun-20 09:59N 60°09' E 024°55'0 0.0
2017-Jun-20 09:29N 60°09' E 024°55'0 0.0
2017-Jun-20 08:59N 60°09' E 024°55'0 0.0
2017-Jun-20 08:29N 60°09' E 024°55'0 0.0
2017-Jun-20 07:59N 60°09' E 024°55'0 0.0
2017-Jun-20 07:29N 60°09' E 024°55'0 0.0
2017-Jun-20 06:59N 60°09' E 024°55'0 0.0
2017-Jun-20 06:29N 60°09' E 024°55'0 0.0
2017-Jun-20 05:59N 60°09' E 024°55'0 0.0
2017-Jun-20 05:29N 60°09' E 024°55'0 0.0
2017-Jun-20 04:59N 60°09' E 024°55'0 0.0
2017-Jun-20 04:29N 60°09' E 024°55'0 0.0
2017-Jun-20 03:59N 60°09' E 024°55'0 0.0
2017-Jun-20 03:29N 60°09' E 024°55'0 0.0
2017-Jun-20 02:59N 60°09' E 024°55'0 0.0
2017-Jun-20 02:29N 60°09' E 024°55'0 0.0
2017-Jun-20 01:59N 60°09' E 024°55'0 0.0
2017-Jun-20 01:29N 60°09' E 024°55'0 0.0
2017-Jun-20 00:59N 60°09' E 024°55'0 0.0
2017-Jun-20 00:29N 60°09' E 024°55'0 0.0
2017-Jun-19 23:59N 60°09' E 024°55'0 0.0
2017-Jun-19 23:29N 60°09' E 024°55'0 0.0
2017-Jun-19 22:59N 60°09' E 024°55'0 0.0
2017-Jun-19 22:29N 60°09' E 024°55'0 0.0
2017-Jun-19 21:59N 60°09' E 024°55'0 0.0
2017-Jun-19 21:29N 60°09' E 024°55'0 0.0
2017-Jun-19 20:59N 60°09' E 024°55'0 0.0
2017-Jun-19 20:29N 60°09' E 024°55'1 1.3
2017-Jun-19 20:01N 60°09' E 024°54'4 7.5
2017-Jun-19 19:30N 60°05' E 024°54'5 9.8
2017-Jun-19 19:00N 60°00' E 024°57'4 8.0
2017-Jun-19 18:30N 59°56' E 024°56'4 8.2
2017-Jun-19 18:00N 59°52' E 024°54'4 8.1
2017-Jun-19 17:30N 59°48' E 024°52'4 8.7
2017-Jun-19 17:00N 59°44' E 024°50'4 8.3
2017-Jun-19 16:30N 59°40' E 024°46'4 8.5
2017-Jun-19 16:00N 59°37' E 024°41'612.4
2017-Jun-19 15:31N 59°31' E 024°45'4 8.4
2017-Jun-19 15:00N 59°27' E 024°46'0 0.0
2017-Jun-19 13:58N 59°27' E 024°46'0 0.0
2017-Jun-19 13:29N 59°27' E 024°46'0 0.0
2017-Jun-19 12:59N 59°27' E 024°46'0 0.0
2017-Jun-19 12:28N 59°27' E 024°46'0 0.0
2017-Jun-19 11:57N 59°27' E 024°46'0 0.0
2017-Jun-19 11:27N 59°27' E 024°46'0 0.0
2017-Jun-19 10:58N 59°27' E 024°46'0 0.0
2017-Jun-19 10:28N 59°27' E 024°46'0 0.0
2017-Jun-19 09:58N 59°27' E 024°46'0 0.0
2017-Jun-19 09:28N 59°27' E 024°46'0 0.0
2017-Jun-19 08:58N 59°27' E 024°46'0 0.0
2017-Jun-19 08:28N 59°27' E 024°46'0 0.0
2017-Jun-19 07:59N 59°27' E 024°46'0 0.0
2017-Jun-19 07:30N 59°27' E 024°46'0 0.0
2017-Jun-19 07:00N 59°27' E 024°46'0 0.0
2017-Jun-19 06:29N 59°27' E 024°46'0 0.0
2017-Jun-19 06:00N 59°27' E 024°46'0 0.0
2017-Jun-19 05:28N 59°27' E 024°46'0 0.0
2017-Jun-19 04:55N 59°27' E 024°46'0 0.0
2017-Jun-19 04:28N 59°27' E 024°46'0 0.0
2017-Jun-19 03:58N 59°27' E 024°46'0 0.0
2017-Jun-19 03:28N 59°27' E 024°46'0 0.0
2017-Jun-19 03:00N 59°27' E 024°46'0 0.0
2017-Jun-19 02:30N 59°27' E 024°46'0 0.0
2017-Jun-19 02:00N 59°27' E 024°46'0 0.0
2017-Jun-19 01:30N 59°27' E 024°46'0 0.0
2017-Jun-19 01:00N 59°27' E 024°46'0 0.0
2017-Jun-19 00:30N 59°27' E 024°46'0 0.0
2017-Jun-19 00:00N 59°27' E 024°46'0 0.0
2017-Jun-18 23:30N 59°27' E 024°46'0 0.0
2017-Jun-18 23:00N 59°27' E 024°46'0 0.0
2017-Jun-18 22:28N 59°27' E 024°46'0 0.0
2017-Jun-18 22:00N 59°27' E 024°46'0 0.0
2017-Jun-18 21:30N 59°27' E 024°46'0 0.0
2017-Jun-18 21:00N 59°27' E 024°46'0 0.0
2017-Jun-18 20:30N 59°27' E 024°46'0 0.0
2017-Jun-18 20:00N 59°27' E 024°46'0 0.0
2017-Jun-18 19:30N 59°27' E 024°46'0 0.0
2017-Jun-18 19:00N 59°27' E 024°46'0 0.0
2017-Jun-18 18:30N 59°27' E 024°46'0 0.0
2017-Jun-18 18:00N 59°27' E 024°46'0 0.0
2017-Jun-18 17:29N 59°27' E 024°46'0 0.0
2017-Jun-18 16:59N 59°27' E 024°46'0 0.0
2017-Jun-18 16:29N 59°27' E 024°46'0 0.0
2017-Jun-18 15:58N 59°27' E 024°46'0 0.0
2017-Jun-18 15:30N 59°27' E 024°46'0 0.0
2017-Jun-18 15:00N 59°27' E 024°46'0 0.0
2017-Jun-18 14:00N 59°27' E 024°46'0 0.0
2017-Jun-18 13:30N 59°27' E 024°46'0 0.0
2017-Jun-18 13:00N 59°27' E 024°46'0 0.0
2017-Jun-18 12:30N 59°27' E 024°46'0 0.0
2017-Jun-18 11:57N 59°27' E 024°46'0 0.0
2017-Jun-18 11:30N 59°27' E 024°46'0 0.0
2017-Jun-18 11:00N 59°27' E 024°46'0 0.0
2017-Jun-18 10:30N 59°27' E 024°46'0 0.0
2017-Jun-18 10:00N 59°27' E 024°46'0 0.0
2017-Jun-18 09:30N 59°27' E 024°46'0 0.0
2017-Jun-18 09:00N 59°27' E 024°46'0 0.0
2017-Jun-18 08:30N 59°27' E 024°46'0 0.0
2017-Jun-18 08:00N 59°27' E 024°46'0 0.0
2017-Jun-18 07:30N 59°27' E 024°46'0 0.0
2017-Jun-18 06:57N 59°27' E 024°46'0 0.0
2017-Jun-18 06:30N 59°27' E 024°46'2 4.3
2017-Jun-18 06:00N 59°29' E 024°45'612.0
2017-Jun-18 05:30N 59°30' E 024°33'714.3
2017-Jun-18 05:00N 59°30' E 024°19'816.0
2017-Jun-18 04:30N 59°29' E 024°03'815.5
2017-Jun-18 04:00N 59°29' E 023°48'917.5
2017-Jun-18 03:30N 59°28' E 023°31'917.8
2017-Jun-18 03:00N 59°27' E 023°14'816.2
2017-Jun-18 02:30N 59°24' E 022°59'816.5
2017-Jun-18 02:01N 59°22' E 022°43'816.5
2017-Jun-18 01:30N 59°19' E 022°28'816.2
2017-Jun-18 01:00N 59°18' E 022°12'816.4
2017-Jun-18 00:30N 59°18' E 021°56'816.5
2017-Jun-18 00:00N 59°17' E 021°40'816.4
2017-Jun-17 23:30N 59°17' E 021°24'816.4
2017-Jun-17 23:00N 59°15' E 021°08'816.1
2017-Jun-17 22:30N 59°16' E 020°53'816.5
2017-Jun-17 22:00N 59°16' E 020°37'816.4
2017-Jun-17 21:30N 59°16' E 020°21'816.5
2017-Jun-17 21:00N 59°15' E 020°05'816.6
2017-Jun-17 20:30N 59°15' E 019°48'816.5
2017-Jun-17 20:01N 59°14' E 019°32'917.1
2017-Jun-17 19:31N 59°14' E 019°15'714.7
2017-Jun-17 19:00N 59°15' E 019°01'5 9.0
2017-Jun-17 18:30N 59°18' E 018°54'611.7
2017-Jun-17 18:00N 59°22' E 018°46'611.7
2017-Jun-17 17:30N 59°23' E 018°35'611.1
2017-Jun-17 16:55N 59°26' E 018°24'4 9.7
2017-Jun-17 16:30N 59°23' E 018°27'4 7.7
2017-Jun-17 16:00N 59°22' E 018°19'510.8
2017-Jun-17 15:30N 59°20' E 018°09'1 1.9
2017-Jun-17 14:56N 59°21' E 018°07'0 0.0
2017-Jun-17 14:19N 59°21' E 018°07'0 0.0
2017-Jun-17 13:26N 59°21' E 018°07'0 0.0
2017-Jun-17 12:57N 59°21' E 018°07'0 0.0
2017-Jun-17 12:27N 59°21' E 018°07'0 0.0
2017-Jun-17 11:55N 59°21' E 018°07'0 0.0
2017-Jun-17 11:29N 59°21' E 018°07'0 0.0
2017-Jun-17 10:59N 59°21' E 018°07'0 0.0
2017-Jun-17 10:29N 59°21' E 018°07'0 0.0
2017-Jun-17 09:59N 59°21' E 018°07'0 0.0
2017-Jun-17 09:29N 59°21' E 018°07'0 0.0
2017-Jun-17 09:00N 59°21' E 018°07'0 0.0
2017-Jun-17 08:25N 59°21' E 018°07'0 0.0
2017-Jun-17 07:48N 59°21' E 018°07'0 0.0
2017-Jun-17 07:30N 59°21' E 018°07'0 0.0
2017-Jun-17 06:56N 59°21' E 018°07'0 0.0
2017-Jun-17 06:29N 59°21' E 018°07'0 0.0
2017-Jun-17 06:00N 59°21' E 018°07'0 0.0
2017-Jun-17 05:30N 59°21' E 018°07'0 0.0
2017-Jun-17 04:59N 59°21' E 018°07'0 0.8
2017-Jun-17 04:30N 59°21' E 018°08'2 4.4
2017-Jun-17 04:00N 59°20' E 018°12'510.6
2017-Jun-17 03:30N 59°22' E 018°22'3 5.5
2017-Jun-17 03:00N 59°24' E 018°26'3 5.2
2017-Jun-17 02:30N 59°26' E 018°29'611.8
2017-Jun-17 02:00N 59°23' E 018°38'510.7
2017-Jun-17 01:31N 59°20' E 018°47'611.0
2017-Jun-17 01:00N 59°16' E 018°54'611.5
2017-Jun-17 00:30N 59°14' E 019°05'612.4
2017-Jun-17 00:01N 59°15' E 019°17'714.2
2017-Jun-16 23:31N 59°16' E 019°31'714.2
2017-Jun-16 23:01N 59°17' E 019°44'714.0
2017-Jun-16 22:31N 59°18' E 019°58'714.2
2017-Jun-16 22:01N 59°19' E 020°12'714.3
2017-Jun-16 21:31N 59°20' E 020°26'714.2
2017-Jun-16 21:01N 59°21' E 020°39'714.3
2017-Jun-16 20:31N 59°22' E 020°53'714.5
2017-Jun-16 20:01N 59°23' E 021°07'714.3
2017-Jun-16 19:31N 59°24' E 021°21'714.3
2017-Jun-16 19:00N 59°25' E 021°35'714.4
2017-Jun-16 18:30N 59°26' E 021°49'714.6
2017-Jun-16 18:01N 59°27' E 022°03'714.7
2017-Jun-16 17:31N 59°28' E 022°18'714.4
2017-Jun-16 17:01N 59°31' E 022°30'714.5
2017-Jun-16 16:30N 59°33' E 022°44'714.6
2017-Jun-16 16:00N 59°35' E 022°58'714.5
2017-Jun-16 15:31N 59°37' E 023°11'714.8
2017-Jun-16 15:00N 59°40' E 023°25'815.3
2017-Jun-16 14:31N 59°42' E 023°40'1818.0
2017-Jun-16 13:31N 59°46' E 024°14'918.8
2017-Jun-16 13:00N 59°49' E 024°33'918.6
2017-Jun-16 12:31N 59°53' E 024°49'917.1
2017-Jun-16 12:01N 60°01' E 024°57'713.2
2017-Jun-16 11:31N 60°07' E 024°59'3 5.1
2017-Jun-16 11:00N 60°10' E 024°58'0 0.0
2017-Jun-16 10:26N 60°10' E 024°58'0 0.0
2017-Jun-16 10:00N 60°10' E 024°58'0 0.0
2017-Jun-16 09:30N 60°10' E 024°58'0 0.0
2017-Jun-16 09:00N 60°10' E 024°58'0 0.0
2017-Jun-16 08:29N 60°10' E 024°58'  

Dump ship's entire track history